Templeton, Iowa
Current Conditions -  °F | °C
As of 6:15 AM on Sunday 23 Nov 2014 (Local Time) from KCIN Reporting Station
Overcast Overcast  
Wind Chill: 50°   Ceiling: 800
Heat Index: 50°   Visibility: 10mi
Dew Point: 50°   Wind: 13mph
Humidity: 100%   Direction: 190°S
Pressure: 29.47"   Gusts: NA
Location:  41.92°N, 94.94°W
Report Text: KCIN 231215Z AUTO 19011KT 10SM BKN008 BKN017 OVC046 10/10 A2947 RMK AO2
Loading
Personal Weather Stations






























Interactive Weather Map New forecast layout! Learn more

10-Day Weather Forecast

Advertisements
Track Severe Weather on mobile